createdAt,value
2023-03-26T00:02:29.845Z,7.70
2023-03-26T00:08:31.779Z,7.70
2023-03-26T00:14:33.581Z,7.70
2023-03-26T00:20:35.379Z,7.70
2023-03-26T00:26:41.013Z,7.60
2023-03-26T00:32:43.642Z,7.70
2023-03-26T00:38:55.432Z,7.70
2023-03-26T00:44:57.858Z,7.70
2023-03-26T00:50:59.858Z,7.60
2023-03-26T00:57:01.667Z,7.70
2023-03-26T01:03:05.250Z,7.60
2023-03-26T01:09:18.981Z,7.50
2023-03-26T01:15:22.242Z,7.50
2023-03-26T01:21:28.698Z,7.50
2023-03-26T01:27:46.920Z,7.50
2023-03-26T01:34:07.677Z,7.50
2023-03-26T01:40:27.611Z,7.40
2023-03-26T01:46:34.263Z,7.40
2023-03-26T01:52:36.232Z,7.40
2023-03-26T01:59:05.163Z,7.40
2023-03-26T02:05:22.174Z,7.50
2023-03-26T02:11:33.595Z,7.50
2023-03-26T02:17:40.343Z,7.50
2023-03-26T02:23:46.833Z,7.50
2023-03-26T02:29:50.280Z,7.60
2023-03-26T02:35:59.408Z,7.60
2023-03-26T02:42:01.695Z,7.60
2023-03-26T02:48:06.106Z,7.50
2023-03-26T02:54:13.552Z,7.50
2023-03-26T03:00:55.009Z,7.40
2023-03-26T03:07:03.956Z,7.30
2023-03-26T03:13:07.774Z,7.10
2023-03-26T03:19:09.835Z,7.20
2023-03-26T03:25:17.442Z,7.10
2023-03-26T03:31:21.735Z,7.20
2023-03-26T03:37:24.649Z,7.40
2023-03-26T03:43:29.299Z,7.40
2023-03-26T03:49:42.267Z,7.40
2023-03-26T03:55:53.395Z,7.40
2023-03-26T04:01:57.947Z,7.50
2023-03-26T04:08:07.469Z,7.50
2023-03-26T04:14:26.299Z,7.50
2023-03-26T04:20:34.139Z,7.50
2023-03-26T04:26:37.812Z,7.50
2023-03-26T04:32:45.416Z,7.50
2023-03-26T04:38:49.374Z,7.50
2023-03-26T04:44:54.159Z,7.50
2023-03-26T04:50:57.303Z,7.50
2023-03-26T04:57:03.582Z,7.50
2023-03-26T05:03:21.047Z,7.50
2023-03-26T05:09:24.576Z,7.50
2023-03-26T05:15:58.703Z,7.40
2023-03-26T05:22:24.556Z,7.40
2023-03-26T05:28:44.901Z,7.30
2023-03-26T05:34:54.030Z,7.40
2023-03-26T05:41:01.204Z,7.30
2023-03-26T05:47:04.023Z,7.30
2023-03-26T05:53:06.226Z,7.30
2023-03-26T05:59:15.359Z,7.40
2023-03-26T06:05:37.427Z,7.60
2023-03-26T06:11:59.507Z,7.80
2023-03-26T06:18:03.809Z,7.90
2023-03-26T06:24:11.321Z,7.90
2023-03-26T06:30:42.836Z,7.80
2023-03-26T06:37:07.578Z,7.90
2023-03-26T06:43:11.080Z,8.10
2023-03-26T06:49:22.057Z,8.30
2023-03-26T06:55:42.296Z,8.40
2023-03-26T07:02:02.367Z,8.50
2023-03-26T07:08:25.093Z,8.80
2023-03-26T07:14:46.683Z,9.00
2023-03-26T07:21:27.281Z,9.10
2023-03-26T07:27:42.895Z,9.10
2023-03-26T07:34:04.101Z,9.20
2023-03-26T07:40:50.809Z,9.40
2023-03-26T07:47:04.861Z,9.50
2023-03-26T07:53:11.827Z,9.60
2023-03-26T07:59:58.322Z,9.90
2023-03-26T08:06:34.145Z,10.10
2023-03-26T08:13:10.322Z,10.40
2023-03-26T08:19:37.758Z,10.70
2023-03-26T08:26:02.406Z,10.80
2023-03-26T08:32:08.326Z,10.90
2023-03-26T08:38:15.029Z,11.20
2023-03-26T08:44:47.585Z,11.50
2023-03-26T08:51:15.273Z,11.80
2023-03-26T08:57:20.450Z,12.40
2023-03-26T09:03:30.531Z,12.60
2023-03-26T09:09:56.716Z,12.50
2023-03-26T09:16:27.079Z,12.60
2023-03-26T09:22:47.703Z,12.80
2023-03-26T09:29:06.320Z,12.70
2023-03-26T09:35:31.023Z,12.50
2023-03-26T09:42:03.646Z,12.40
2023-03-26T09:48:14.836Z,12.60
2023-03-26T09:54:44.293Z,12.80
2023-03-26T10:00:56.272Z,13.00
2023-03-26T10:07:17.114Z,13.20
2023-03-26T10:13:44.962Z,13.70
2023-03-26T10:20:09.590Z,13.80
2023-03-26T10:26:27.735Z,13.90
2023-03-26T10:32:33.470Z,13.90
2023-03-26T10:39:00.135Z,14.00
2023-03-26T10:45:21.445Z,14.10
2023-03-26T10:51:51.277Z,14.20
2023-03-26T10:58:12.237Z,14.30
2023-03-26T11:04:23.436Z,14.30
2023-03-26T11:11:02.586Z,14.20
2023-03-26T11:18:03.966Z,14.00
2023-03-26T11:24:24.803Z,13.90
2023-03-26T11:30:46.811Z,13.40
2023-03-26T11:36:54.526Z,12.60
2023-03-26T11:43:00.889Z,12.20
2023-03-26T11:49:11.077Z,12.20
2023-03-26T11:55:13.802Z,12.20
2023-03-26T12:01:22.769Z,12.20
2023-03-26T12:07:33.038Z,12.20
2023-03-26T12:13:42.142Z,12.10
2023-03-26T12:19:45.620Z,11.70
2023-03-26T12:26:27.706Z,11.50
2023-03-26T12:32:45.285Z,11.30
2023-03-26T12:39:16.555Z,10.90
2023-03-26T12:45:14.236Z,10.70
2023-03-26T12:51:22.170Z,10.60
2023-03-26T12:57:30.629Z,10.50
2023-03-26T13:03:57.891Z,10.50
2023-03-26T13:10:45.551Z,10.50
2023-03-26T13:17:02.261Z,10.50
2023-03-26T13:23:18.183Z,10.70
2023-03-26T13:29:23.616Z,10.60
2023-03-26T13:36:00.668Z,10.60
2023-03-26T13:42:22.184Z,10.60
2023-03-26T13:48:46.480Z,10.70
2023-03-26T13:55:18.438Z,10.50
2023-03-26T14:01:43.741Z,10.40
2023-03-26T14:08:11.354Z,10.50
2023-03-26T14:14:37.702Z,10.40
2023-03-26T14:21:10.562Z,10.30
2023-03-26T14:27:34.135Z,10.30
2023-03-26T14:34:04.865Z,10.40
2023-03-26T14:40:28.037Z,10.40
2023-03-26T14:46:35.948Z,10.30
2023-03-26T14:52:50.571Z,10.40
2023-03-26T14:59:28.509Z,10.40
2023-03-26T15:05:57.412Z,10.40
2023-03-26T15:12:12.430Z,10.50
2023-03-26T15:18:27.290Z,10.50
2023-03-26T15:24:56.299Z,10.30
2023-03-26T15:31:23.067Z,10.10
2023-03-26T15:37:37.545Z,9.70
2023-03-26T15:44:22.840Z,9.50
2023-03-26T15:50:54.191Z,9.40
2023-03-26T15:57:08.884Z,9.20
2023-03-26T16:03:10.814Z,9.20
2023-03-26T16:09:53.582Z,9.00
2023-03-26T16:15:58.035Z,8.90
2023-03-26T16:22:07.582Z,8.90
2023-03-26T16:28:12.379Z,8.70
2023-03-26T16:34:27.139Z,8.60
2023-03-26T16:40:34.438Z,8.40
2023-03-26T16:47:13.965Z,8.40
2023-03-26T16:53:41.567Z,8.40
2023-03-26T17:00:16.352Z,8.30
2023-03-26T17:06:45.764Z,8.20
2023-03-26T17:13:00.619Z,8.10
2023-03-26T17:19:33.080Z,8.00
2023-03-26T17:25:54.583Z,7.90
2023-03-26T17:32:17.904Z,7.90
2023-03-26T17:38:25.778Z,7.90
2023-03-26T17:44:57.739Z,7.90
2023-03-26T17:51:06.344Z,7.90
2023-03-26T17:57:14.288Z,7.80
2023-03-26T18:03:39.878Z,7.70
2023-03-26T18:10:03.721Z,7.70
2023-03-26T18:16:17.606Z,7.70
2023-03-26T18:22:28.445Z,7.60
2023-03-26T18:28:40.443Z,7.60
2023-03-26T18:34:53.554Z,7.50
2023-03-26T18:40:58.633Z,7.40
2023-03-26T18:47:01.136Z,7.50
2023-03-26T18:53:06.134Z,7.50
2023-03-26T18:59:27.858Z,7.50
2023-03-26T19:05:33.032Z,7.40
2023-03-26T19:11:38.466Z,7.30
2023-03-26T19:17:44.400Z,7.30
2023-03-26T19:23:47.329Z,7.20
2023-03-26T19:29:49.231Z,7.20
2023-03-26T19:36:23.036Z,7.10
2023-03-26T19:42:43.222Z,7.00
2023-03-26T19:48:51.891Z,6.90
2023-03-26T19:55:17.878Z,6.90
2023-03-26T20:01:23.820Z,6.90
2023-03-26T20:07:35.825Z,6.70
2023-03-26T20:13:38.116Z,6.60
2023-03-26T20:19:40.802Z,6.60
2023-03-26T20:25:51.645Z,6.60
2023-03-26T20:31:53.543Z,6.50
2023-03-26T20:37:55.397Z,6.40
2023-03-26T20:43:57.327Z,6.40
2023-03-26T20:49:59.185Z,6.20
2023-03-26T20:56:01.986Z,6.20
2023-03-26T21:02:04.296Z,6.10
2023-03-26T21:08:07.071Z,6.00
2023-03-26T21:14:27.741Z,5.90
2023-03-26T21:20:29.970Z,5.90
2023-03-26T21:26:57.645Z,5.80
2023-03-26T21:32:59.787Z,5.80
2023-03-26T21:39:03.246Z,5.60
2023-03-26T21:45:05.578Z,5.50
2023-03-26T21:51:08.085Z,5.40
2023-03-26T21:57:40.550Z,5.30
2023-03-26T22:03:57.977Z,5.20
2023-03-26T22:10:00.039Z,5.10
2023-03-26T22:16:02.509Z,5.10
2023-03-26T22:22:04.317Z,4.90
2023-03-26T22:28:06.141Z,4.80
2023-03-26T22:34:08.706Z,4.70
2023-03-26T22:40:13.498Z,4.60
2023-03-26T22:46:16.180Z,4.40
2023-03-26T22:52:18.221Z,4.30
2023-03-26T22:58:20.042Z,4.20
2023-03-26T23:04:30.678Z,4.20
2023-03-26T23:10:34.240Z,4.20
2023-03-26T23:16:36.111Z,4.20
2023-03-26T23:22:37.985Z,4.10
2023-03-26T23:28:40.991Z,4.00
2023-03-26T23:34:51.732Z,4.00
2023-03-26T23:40:57.343Z,3.90
2023-03-26T23:47:00.496Z,3.90
2023-03-26T23:53:02.321Z,3.80
2023-03-26T23:59:04.841Z,3.80
